sensor_id;sensor_type;location;lat;lon;timestamp;temperature;humidity
9410;DHT22;4744;52.576;13.568;2023-05-10T00:02:01;10.90;1.00
9410;DHT22;4744;52.576;13.568;2023-05-10T00:04:28;10.90;1.00
9410;DHT22;4744;52.576;13.568;2023-05-10T00:06:55;10.90;1.00
9410;DHT22;4744;52.576;13.568;2023-05-10T00:09:22;10.90;1.00
9410;DHT22;4744;52.576;13.568;2023-05-10T00:11:50;10.90;1.00
9410;DHT22;4744;52.576;13.568;2023-05-10T00:14:17;10.80;1.00
9410;DHT22;4744;52.576;13.568;2023-05-10T00:16:44;10.80;1.00
9410;DHT22;4744;52.576;13.568;2023-05-10T00:19:11;10.80;1.00
9410;DHT22;4744;52.576;13.568;2023-05-10T00:21:38;10.80;1.00
9410;DHT22;4744;52.576;13.568;2023-05-10T00:24:05;10.70;1.00
9410;DHT22;4744;52.576;13.568;2023-05-10T00:26:32;10.60;1.00
9410;DHT22;4744;52.576;13.568;2023-05-10T00:29:00;10.60;1.00
9410;DHT22;4744;52.576;13.568;2023-05-10T00:31:27;10.60;1.00
9410;DHT22;4744;52.576;13.568;2023-05-10T00:33:54;10.50;1.00
9410;DHT22;4744;52.576;13.568;2023-05-10T00:36:21;10.60;1.00
9410;DHT22;4744;52.576;13.568;2023-05-10T00:38:48;10.60;1.00
9410;DHT22;4744;52.576;13.568;2023-05-10T00:41:15;10.50;1.00
9410;DHT22;4744;52.576;13.568;2023-05-10T00:43:42;10.50;1.00
9410;DHT22;4744;52.576;13.568;2023-05-10T00:46:10;10.50;1.00
9410;DHT22;4744;52.576;13.568;2023-05-10T00:48:38;10.50;1.00
9410;DHT22;4744;52.576;13.568;2023-05-10T00:51:05;10.50;1.00
9410;DHT22;4744;52.576;13.568;2023-05-10T00:53:32;10.50;1.00
9410;DHT22;4744;52.576;13.568;2023-05-10T00:56:00;10.50;1.00
9410;DHT22;4744;52.576;13.568;2023-05-10T00:58:28;10.50;1.00
9410;DHT22;4744;52.576;13.568;2023-05-10T01:00:56;10.40;1.00
9410;DHT22;4744;52.576;13.568;2023-05-10T01:03:26;10.40;1.00
9410;DHT22;4744;52.576;13.568;2023-05-10T01:05:52;10.40;1.00
9410;DHT22;4744;52.576;13.568;2023-05-10T01:08:20;10.30;1.00
9410;DHT22;4744;52.576;13.568;2023-05-10T01:10:47;10.30;1.00
9410;DHT22;4744;52.576;13.568;2023-05-10T01:13:23;10.30;1.00
9410;DHT22;4744;52.576;13.568;2023-05-10T01:15:54;10.30;1.00
9410;DHT22;4744;52.576;13.568;2023-05-10T01:18:22;10.30;1.00
9410;DHT22;4744;52.576;13.568;2023-05-10T01:20:57;10.30;1.00
9410;DHT22;4744;52.576;13.568;2023-05-10T01:23:40;10.30;1.00
9410;DHT22;4744;52.576;13.568;2023-05-10T01:26:39;10.30;1.00
9410;DHT22;4744;52.576;13.568;2023-05-10T01:29:31;10.30;1.00
9410;DHT22;4744;52.576;13.568;2023-05-10T01:32:21;10.30;1.00
9410;DHT22;4744;52.576;13.568;2023-05-10T01:34:57;10.30;1.00
9410;DHT22;4744;52.576;13.568;2023-05-10T01:37:31;10.20;1.00
9410;DHT22;4744;52.576;13.568;2023-05-10T01:40:03;10.20;1.00
9410;DHT22;4744;52.576;13.568;2023-05-10T01:42:39;10.20;1.00
9410;DHT22;4744;52.576;13.568;2023-05-10T01:45:14;10.20;1.00
9410;DHT22;4744;52.576;13.568;2023-05-10T01:47:49;10.20;1.00
9410;DHT22;4744;52.576;13.568;2023-05-10T01:50:18;10.20;1.00
9410;DHT22;4744;52.576;13.568;2023-05-10T01:52:50;10.10;1.00
9410;DHT22;4744;52.576;13.568;2023-05-10T01:55:20;10.10;1.00
9410;DHT22;4744;52.576;13.568;2023-05-10T01:57:52;10.10;1.00
9410;DHT22;4744;52.576;13.568;2023-05-10T02:00:21;10.10;1.00
9410;DHT22;4744;52.576;13.568;2023-05-10T02:02:51;10.00;1.00
9410;DHT22;4744;52.576;13.568;2023-05-10T02:05:20;10.00;1.00
9410;DHT22;4744;52.576;13.568;2023-05-10T02:07:49;10.00;1.00
9410;DHT22;4744;52.576;13.568;2023-05-10T02:10:17;10.00;1.00
9410;DHT22;4744;52.576;13.568;2023-05-10T02:12:47;9.90;1.00
9410;DHT22;4744;52.576;13.568;2023-05-10T02:15:18;9.90;1.00
9410;DHT22;4744;52.576;13.568;2023-05-10T02:17:46;9.90;1.00
9410;DHT22;4744;52.576;13.568;2023-05-10T02:20:16;9.90;1.00
9410;DHT22;4744;52.576;13.568;2023-05-10T02:22:45;9.90;1.00
9410;DHT22;4744;52.576;13.568;2023-05-10T02:25:13;9.90;1.00
9410;DHT22;4744;52.576;13.568;2023-05-10T02:27:42;9.90;1.00
9410;DHT22;4744;52.576;13.568;2023-05-10T02:30:11;9.80;1.00
9410;DHT22;4744;52.576;13.568;2023-05-10T02:32:38;9.80;1.00
9410;DHT22;4744;52.576;13.568;2023-05-10T02:35:07;9.80;1.00
9410;DHT22;4744;52.576;13.568;2023-05-10T02:37:37;9.80;1.00
9410;DHT22;4744;52.576;13.568;2023-05-10T02:40:06;9.80;1.00
9410;DHT22;4744;52.576;13.568;2023-05-10T02:42:36;9.80;1.00
9410;DHT22;4744;52.576;13.568;2023-05-10T02:45:10;9.80;1.00
9410;DHT22;4744;52.576;13.568;2023-05-10T02:47:38;9.80;1.00
9410;DHT22;4744;52.576;13.568;2023-05-10T02:50:06;9.80;1.00
9410;DHT22;4744;52.576;13.568;2023-05-10T02:52:40;9.80;1.00
9410;DHT22;4744;52.576;13.568;2023-05-10T02:55:09;9.70;1.00
9410;DHT22;4744;52.576;13.568;2023-05-10T02:57:41;9.60;1.00
9410;DHT22;4744;52.576;13.568;2023-05-10T03:00:10;9.70;1.00
9410;DHT22;4744;52.576;13.568;2023-05-10T03:02:37;9.70;1.00
9410;DHT22;4744;52.576;13.568;2023-05-10T03:05:05;9.70;1.00
9410;DHT22;4744;52.576;13.568;2023-05-10T03:07:33;9.70;1.00
9410;DHT22;4744;52.576;13.568;2023-05-10T03:10:01;9.70;1.00
9410;DHT22;4744;52.576;13.568;2023-05-10T03:12:38;9.70;1.00
9410;DHT22;4744;52.576;13.568;2023-05-10T03:15:13;9.70;1.00
9410;DHT22;4744;52.576;13.568;2023-05-10T03:17:47;9.70;1.00
9410;DHT22;4744;52.576;13.568;2023-05-10T03:20:21;9.70;1.00
9410;DHT22;4744;52.576;13.568;2023-05-10T03:22:52;9.70;1.00
9410;DHT22;4744;52.576;13.568;2023-05-10T03:25:21;9.60;1.00
9410;DHT22;4744;52.576;13.568;2023-05-10T03:27:50;9.60;1.00
9410;DHT22;4744;52.576;13.568;2023-05-10T03:30:17;9.60;1.00
9410;DHT22;4744;52.576;13.568;2023-05-10T03:32:45;9.60;1.00
9410;DHT22;4744;52.576;13.568;2023-05-10T03:35:12;9.60;1.00
9410;DHT22;4744;52.576;13.568;2023-05-10T03:37:40;9.60;1.00
9410;DHT22;4744;52.576;13.568;2023-05-10T03:40:08;9.50;1.00
9410;DHT22;4744;52.576;13.568;2023-05-10T03:42:36;9.50;1.00
9410;DHT22;4744;52.576;13.568;2023-05-10T03:45:03;9.50;1.00
9410;DHT22;4744;52.576;13.568;2023-05-10T03:47:30;9.50;1.00
9410;DHT22;4744;52.576;13.568;2023-05-10T03:49:57;9.50;1.00
9410;DHT22;4744;52.576;13.568;2023-05-10T03:52:24;9.50;1.00
9410;DHT22;4744;52.576;13.568;2023-05-10T03:54:51;9.50;1.00
9410;DHT22;4744;52.576;13.568;2023-05-10T03:57:18;9.50;1.00
9410;DHT22;4744;52.576;13.568;2023-05-10T03:59:47;9.50;1.00
9410;DHT22;4744;52.576;13.568;2023-05-10T04:02:13;9.50;1.00
9410;DHT22;4744;52.576;13.568;2023-05-10T04:04:40;9.60;1.00
9410;DHT22;4744;52.576;13.568;2023-05-10T04:07:07;9.60;1.00
9410;DHT22;4744;52.576;13.568;2023-05-10T04:09:35;9.70;1.00
9410;DHT22;4744;52.576;13.568;2023-05-10T04:12:03;9.70;1.00
9410;DHT22;4744;52.576;13.568;2023-05-10T04:14:30;9.70;1.00
9410;DHT22;4744;52.576;13.568;2023-05-10T04:16:58;9.80;1.00
9410;DHT22;4744;52.576;13.568;2023-05-10T04:19:29;9.80;1.00
9410;DHT22;4744;52.576;13.568;2023-05-10T04:21:56;9.80;1.00
9410;DHT22;4744;52.576;13.568;2023-05-10T04:24:22;9.90;1.00
9410;DHT22;4744;52.576;13.568;2023-05-10T04:26:49;10.00;1.00
9410;DHT22;4744;52.576;13.568;2023-05-10T04:29:16;10.00;1.00
9410;DHT22;4744;52.576;13.568;2023-05-10T04:31:43;10.10;1.00
9410;DHT22;4744;52.576;13.568;2023-05-10T04:34:12;10.20;1.00
9410;DHT22;4744;52.576;13.568;2023-05-10T04:36:39;10.40;1.00
9410;DHT22;4744;52.576;13.568;2023-05-10T04:39:06;10.50;1.00
9410;DHT22;4744;52.576;13.568;2023-05-10T04:41:32;10.60;1.00
9410;DHT22;4744;52.576;13.568;2023-05-10T04:44:00;10.70;1.00
9410;DHT22;4744;52.576;13.568;2023-05-10T04:46:26;10.80;1.00
9410;DHT22;4744;52.576;13.568;2023-05-10T04:48:53;10.80;1.00
9410;DHT22;4744;52.576;13.568;2023-05-10T04:51:22;10.90;1.00
9410;DHT22;4744;52.576;13.568;2023-05-10T04:53:48;11.00;1.00
9410;DHT22;4744;52.576;13.568;2023-05-10T04:56:16;11.10;1.00
9410;DHT22;4744;52.576;13.568;2023-05-10T04:58:43;11.20;1.00
9410;DHT22;4744;52.576;13.568;2023-05-10T05:01:10;11.30;1.00
9410;DHT22;4744;52.576;13.568;2023-05-10T05:03:37;11.40;1.00
9410;DHT22;4744;52.576;13.568;2023-05-10T05:06:04;11.50;1.00
9410;DHT22;4744;52.576;13.568;2023-05-10T05:08:32;11.60;1.00
9410;DHT22;4744;52.576;13.568;2023-05-10T05:10:59;11.70;1.00
9410;DHT22;4744;52.576;13.568;2023-05-10T05:13:26;11.80;1.00
9410;DHT22;4744;52.576;13.568;2023-05-10T05:15:53;12.00;1.00
9410;DHT22;4744;52.576;13.568;2023-05-10T05:18:20;12.10;1.00
9410;DHT22;4744;52.576;13.568;2023-05-10T05:20:47;12.20;1.00
9410;DHT22;4744;52.576;13.568;2023-05-10T05:23:14;12.30;1.00
9410;DHT22;4744;52.576;13.568;2023-05-10T05:25:42;12.30;1.00
9410;DHT22;4744;52.576;13.568;2023-05-10T05:28:09;12.50;1.00
9410;DHT22;4744;52.576;13.568;2023-05-10T05:30:36;12.60;1.00
9410;DHT22;4744;52.576;13.568;2023-05-10T05:33:03;12.60;1.00
9410;DHT22;4744;52.576;13.568;2023-05-10T05:35:30;12.70;1.00
9410;DHT22;4744;52.576;13.568;2023-05-10T05:37:57;12.80;1.00
9410;DHT22;4744;52.576;13.568;2023-05-10T05:40:23;12.90;1.00
9410;DHT22;4744;52.576;13.568;2023-05-10T05:42:52;13.00;1.00
9410;DHT22;4744;52.576;13.568;2023-05-10T05:45:19;13.10;1.00
9410;DHT22;4744;52.576;13.568;2023-05-10T05:47:46;13.20;1.00
9410;DHT22;4744;52.576;13.568;2023-05-10T05:50:13;13.30;1.00
9410;DHT22;4744;52.576;13.568;2023-05-10T05:52:40;13.40;1.00
9410;DHT22;4744;52.576;13.568;2023-05-10T05:55:07;13.40;1.00
9410;DHT22;4744;52.576;13.568;2023-05-10T05:57:34;13.50;1.00
9410;DHT22;4744;52.576;13.568;2023-05-10T06:00:03;13.60;1.00
9410;DHT22;4744;52.576;13.568;2023-05-10T06:02:30;13.70;1.00
9410;DHT22;4744;52.576;13.568;2023-05-10T06:04:57;13.70;1.00
9410;DHT22;4744;52.576;13.568;2023-05-10T06:07:24;13.80;1.00
9410;DHT22;4744;52.576;13.568;2023-05-10T06:09:51;13.90;1.00
9410;DHT22;4744;52.576;13.568;2023-05-10T06:12:18;14.10;1.00
9410;DHT22;4744;52.576;13.568;2023-05-10T06:14:45;14.20;1.00
9410;DHT22;4744;52.576;13.568;2023-05-10T06:17:13;14.30;1.00
9410;DHT22;4744;52.576;13.568;2023-05-10T06:19:40;14.30;1.00
9410;DHT22;4744;52.576;13.568;2023-05-10T06:22:07;14.40;1.00
9410;DHT22;4744;52.576;13.568;2023-05-10T06:24:34;14.50;1.00
9410;DHT22;4744;52.576;13.568;2023-05-10T06:27:01;14.60;1.00
9410;DHT22;4744;52.576;13.568;2023-05-10T06:29:28;14.60;1.00
9410;DHT22;4744;52.576;13.568;2023-05-10T06:31:55;14.70;1.00
9410;DHT22;4744;52.576;13.568;2023-05-10T06:34:23;14.90;1.00
9410;DHT22;4744;52.576;13.568;2023-05-10T06:36:50;15.00;1.00
9410;DHT22;4744;52.576;13.568;2023-05-10T06:39:17;15.00;1.00
9410;DHT22;4744;52.576;13.568;2023-05-10T06:41:44;15.20;1.00
9410;DHT22;4744;52.576;13.568;2023-05-10T06:44:11;15.30;1.00
9410;DHT22;4744;52.576;13.568;2023-05-10T06:46:38;15.30;1.00
9410;DHT22;4744;52.576;13.568;2023-05-10T06:49:05;15.40;1.00
9410;DHT22;4744;52.576;13.568;2023-05-10T06:51:33;15.50;1.00
9410;DHT22;4744;52.576;13.568;2023-05-10T06:54:00;15.60;1.00
9410;DHT22;4744;52.576;13.568;2023-05-10T06:56:27;15.70;1.00
9410;DHT22;4744;52.576;13.568;2023-05-10T06:58:54;15.70;1.00
9410;DHT22;4744;52.576;13.568;2023-05-10T07:01:21;15.90;1.00
9410;DHT22;4744;52.576;13.568;2023-05-10T07:03:48;16.10;1.00
9410;DHT22;4744;52.576;13.568;2023-05-10T07:06:16;16.10;1.00
9410;DHT22;4744;52.576;13.568;2023-05-10T07:08:44;16.20;1.00
9410;DHT22;4744;52.576;13.568;2023-05-10T07:11:11;16.10;1.00
9410;DHT22;4744;52.576;13.568;2023-05-10T07:13:38;16.20;1.00
9410;DHT22;4744;52.576;13.568;2023-05-10T07:16:09;16.30;1.00
9410;DHT22;4744;52.576;13.568;2023-05-10T07:18:36;16.40;1.00
9410;DHT22;4744;52.576;13.568;2023-05-10T07:21:03;16.40;1.00
9410;DHT22;4744;52.576;13.568;2023-05-10T07:23:30;16.30;1.00
9410;DHT22;4744;52.576;13.568;2023-05-10T07:25:58;16.30;1.00
9410;DHT22;4744;52.576;13.568;2023-05-10T07:28:25;16.30;1.00
9410;DHT22;4744;52.576;13.568;2023-05-10T07:30:52;16.50;1.00
9410;DHT22;4744;52.576;13.568;2023-05-10T07:33:19;16.60;1.00
9410;DHT22;4744;52.576;13.568;2023-05-10T07:35:46;16.80;1.00
9410;DHT22;4744;52.576;13.568;2023-05-10T07:38:13;16.90;1.00
9410;DHT22;4744;52.576;13.568;2023-05-10T07:40:40;16.90;1.00
9410;DHT22;4744;52.576;13.568;2023-05-10T07:43:08;17.00;1.00
9410;DHT22;4744;52.576;13.568;2023-05-10T07:45:35;17.00;1.00
9410;DHT22;4744;52.576;13.568;2023-05-10T07:48:02;17.10;1.00
9410;DHT22;4744;52.576;13.568;2023-05-10T07:50:29;17.20;1.00
9410;DHT22;4744;52.576;13.568;2023-05-10T07:52:56;17.40;1.00
9410;DHT22;4744;52.576;13.568;2023-05-10T07:55:23;17.60;1.00
9410;DHT22;4744;52.576;13.568;2023-05-10T07:57:50;17.80;1.00
9410;DHT22;4744;52.576;13.568;2023-05-10T08:00:19;17.90;1.00
9410;DHT22;4744;52.576;13.568;2023-05-10T08:02:47;17.80;1.00
9410;DHT22;4744;52.576;13.568;2023-05-10T08:05:14;17.90;1.00
9410;DHT22;4744;52.576;13.568;2023-05-10T08:07:41;18.00;1.00
9410;DHT22;4744;52.576;13.568;2023-05-10T08:10:09;18.10;1.00
9410;DHT22;4744;52.576;13.568;2023-05-10T08:12:37;18.10;1.00
9410;DHT22;4744;52.576;13.568;2023-05-10T08:15:05;18.20;1.00
9410;DHT22;4744;52.576;13.568;2023-05-10T08:17:34;18.40;1.00
9410;DHT22;4744;52.576;13.568;2023-05-10T08:20:01;18.60;1.00
9410;DHT22;4744;52.576;13.568;2023-05-10T08:22:28;18.70;1.00
9410;DHT22;4744;52.576;13.568;2023-05-10T08:24:54;19.20;1.00
9410;DHT22;4744;52.576;13.568;2023-05-10T08:27:21;20.20;1.00
9410;DHT22;4744;52.576;13.568;2023-05-10T08:29:48;20.70;1.00
9410;DHT22;4744;52.576;13.568;2023-05-10T08:32:15;21.40;1.00
9410;DHT22;4744;52.576;13.568;2023-05-10T08:34:43;20.80;1.00
9410;DHT22;4744;52.576;13.568;2023-05-10T08:37:10;20.90;1.00
9410;DHT22;4744;52.576;13.568;2023-05-10T08:39:38;20.60;1.00
9410;DHT22;4744;52.576;13.568;2023-05-10T08:42:06;20.60;1.00
9410;DHT22;4744;52.576;13.568;2023-05-10T08:44:35;20.40;1.00
9410;DHT22;4744;52.576;13.568;2023-05-10T08:47:05;20.50;1.00
9410;DHT22;4744;52.576;13.568;2023-05-10T08:49:32;20.80;1.00
9410;DHT22;4744;52.576;13.568;2023-05-10T08:52:03;20.80;1.00
9410;DHT22;4744;52.576;13.568;2023-05-10T08:54:31;21.00;1.00
9410;DHT22;4744;52.576;13.568;2023-05-10T08:56:59;21.30;1.00
9410;DHT22;4744;52.576;13.568;2023-05-10T08:59:27;21.20;1.00
9410;DHT22;4744;52.576;13.568;2023-05-10T09:01:54;21.00;1.00
9410;DHT22;4744;52.576;13.568;2023-05-10T09:04:23;21.00;1.00
9410;DHT22;4744;52.576;13.568;2023-05-10T09:06:50;20.90;1.00
9410;DHT22;4744;52.576;13.568;2023-05-10T09:09:19;21.00;1.00
9410;DHT22;4744;52.576;13.568;2023-05-10T09:11:47;20.90;1.00
9410;DHT22;4744;52.576;13.568;2023-05-10T09:14:15;20.80;1.00
9410;DHT22;4744;52.576;13.568;2023-05-10T09:16:42;21.00;1.00
9410;DHT22;4744;52.576;13.568;2023-05-10T09:19:10;21.00;1.00
9410;DHT22;4744;52.576;13.568;2023-05-10T09:21:37;21.20;1.00
9410;DHT22;4744;52.576;13.568;2023-05-10T09:24:05;20.90;1.00
9410;DHT22;4744;52.576;13.568;2023-05-10T09:26:34;21.00;1.00
9410;DHT22;4744;52.576;13.568;2023-05-10T09:29:02;21.00;1.00
9410;DHT22;4744;52.576;13.568;2023-05-10T09:31:46;21.00;1.00
9410;DHT22;4744;52.576;13.568;2023-05-10T09:34:17;20.90;1.00
9410;DHT22;4744;52.576;13.568;2023-05-10T09:36:55;20.90;1.00
9410;DHT22;4744;52.576;13.568;2023-05-10T09:39:30;20.90;1.00
9410;DHT22;4744;52.576;13.568;2023-05-10T09:42:01;21.10;1.00
9410;DHT22;4744;52.576;13.568;2023-05-10T09:44:29;21.20;1.00
9410;DHT22;4744;52.576;13.568;2023-05-10T09:46:57;21.00;1.00
9410;DHT22;4744;52.576;13.568;2023-05-10T09:49:24;20.90;1.00
9410;DHT22;4744;52.576;13.568;2023-05-10T09:52:00;20.90;1.00
9410;DHT22;4744;52.576;13.568;2023-05-10T09:54:28;21.20;1.00
9410;DHT22;4744;52.576;13.568;2023-05-10T09:56:55;21.30;1.00
9410;DHT22;4744;52.576;13.568;2023-05-10T09:59:25;21.30;1.00
9410;DHT22;4744;52.576;13.568;2023-05-10T10:01:52;21.40;1.00
9410;DHT22;4744;52.576;13.568;2023-05-10T10:04:20;21.50;1.00
9410;DHT22;4744;52.576;13.568;2023-05-10T10:06:58;21.60;1.00
9410;DHT22;4744;52.576;13.568;2023-05-10T10:09:26;21.80;1.00
9410;DHT22;4744;52.576;13.568;2023-05-10T10:11:54;21.70;1.00
9410;DHT22;4744;52.576;13.568;2023-05-10T10:14:26;21.80;1.00
9410;DHT22;4744;52.576;13.568;2023-05-10T10:16:53;21.90;1.00
9410;DHT22;4744;52.576;13.568;2023-05-10T10:19:21;21.90;1.00
9410;DHT22;4744;52.576;13.568;2023-05-10T10:21:49;22.00;1.00
9410;DHT22;4744;52.576;13.568;2023-05-10T10:24:16;22.20;1.00
9410;DHT22;4744;52.576;13.568;2023-05-10T10:26:44;22.40;1.00
9410;DHT22;4744;52.576;13.568;2023-05-10T10:29:23;22.40;1.00
9410;DHT22;4744;52.576;13.568;2023-05-10T10:31:57;22.40;1.00
9410;DHT22;4744;52.576;13.568;2023-05-10T10:34:29;22.50;1.00
9410;DHT22;4744;52.576;13.568;2023-05-10T10:36:57;22.50;1.00
9410;DHT22;4744;52.576;13.568;2023-05-10T10:39:30;22.20;1.00
9410;DHT22;4744;52.576;13.568;2023-05-10T10:41:58;22.10;1.00
9410;DHT22;4744;52.576;13.568;2023-05-10T10:44:35;22.10;1.00
9410;DHT22;4744;52.576;13.568;2023-05-10T10:47:04;22.10;1.00
9410;DHT22;4744;52.576;13.568;2023-05-10T10:49:38;22.30;1.00
9410;DHT22;4744;52.576;13.568;2023-05-10T10:52:21;22.50;1.00
9410;DHT22;4744;52.576;13.568;2023-05-10T10:54:52;22.60;1.00
9410;DHT22;4744;52.576;13.568;2023-05-10T10:57:21;22.50;1.00
9410;DHT22;4744;52.576;13.568;2023-05-10T10:59:49;22.50;1.00
9410;DHT22;4744;52.576;13.568;2023-05-10T11:02:43;22.50;1.00
9410;DHT22;4744;52.576;13.568;2023-05-10T11:05:41;22.70;1.00
9410;DHT22;4744;52.576;13.568;2023-05-10T11:08:11;22.50;1.00
9410;DHT22;4744;52.576;13.568;2023-05-10T11:10:38;22.60;1.00
9410;DHT22;4744;52.576;13.568;2023-05-10T11:13:07;22.70;1.00
9410;DHT22;4744;52.576;13.568;2023-05-10T11:15:37;22.70;1.00
9410;DHT22;4744;52.576;13.568;2023-05-10T11:18:17;22.60;1.00
9410;DHT22;4744;52.576;13.568;2023-05-10T11:20:45;22.70;1.00
9410;DHT22;4744;52.576;13.568;2023-05-10T11:23:16;22.80;1.00
9410;DHT22;4744;52.576;13.568;2023-05-10T11:25:44;23.00;1.00
9410;DHT22;4744;52.576;13.568;2023-05-10T11:28:11;23.30;1.00
9410;DHT22;4744;52.576;13.568;2023-05-10T11:30:41;23.30;1.00
9410;DHT22;4744;52.576;13.568;2023-05-10T11:33:09;23.40;1.00
9410;DHT22;4744;52.576;13.568;2023-05-10T11:35:39;23.30;1.00
9410;DHT22;4744;52.576;13.568;2023-05-10T11:38:07;23.40;1.00
9410;DHT22;4744;52.576;13.568;2023-05-10T11:40:34;23.50;1.00
9410;DHT22;4744;52.576;13.568;2023-05-10T11:43:02;23.50;1.00
9410;DHT22;4744;52.576;13.568;2023-05-10T11:45:30;23.60;1.00
9410;DHT22;4744;52.576;13.568;2023-05-10T11:48:00;23.70;1.00
9410;DHT22;4744;52.576;13.568;2023-05-10T11:50:27;23.80;1.00
9410;DHT22;4744;52.576;13.568;2023-05-10T11:52:55;23.90;1.00
9410;DHT22;4744;52.576;13.568;2023-05-10T11:55:23;23.80;1.00
9410;DHT22;4744;52.576;13.568;2023-05-10T11:57:52;23.80;1.00
9410;DHT22;4744;52.576;13.568;2023-05-10T12:00:19;23.80;1.00
9410;DHT22;4744;52.576;13.568;2023-05-10T12:02:46;23.80;1.00
9410;DHT22;4744;52.576;13.568;2023-05-10T12:05:15;23.60;1.00
9410;DHT22;4744;52.576;13.568;2023-05-10T12:07:42;23.50;1.00
9410;DHT22;4744;52.576;13.568;2023-05-10T12:10:10;23.60;1.00
9410;DHT22;4744;52.576;13.568;2023-05-10T12:12:40;23.40;1.00
9410;DHT22;4744;52.576;13.568;2023-05-10T12:15:16;23.50;1.00
9410;DHT22;4744;52.576;13.568;2023-05-10T12:17:44;23.20;1.00
9410;DHT22;4744;52.576;13.568;2023-05-10T12:20:16;23.30;1.00
9410;DHT22;4744;52.576;13.568;2023-05-10T12:22:48;23.20;1.00
9410;DHT22;4744;52.576;13.568;2023-05-10T12:25:16;23.20;1.00
9410;DHT22;4744;52.576;13.568;2023-05-10T12:27:48;23.40;1.00
9410;DHT22;4744;52.576;13.568;2023-05-10T12:30:19;23.60;1.00
9410;DHT22;4744;52.576;13.568;2023-05-10T12:32:47;23.50;1.00
9410;DHT22;4744;52.576;13.568;2023-05-10T12:35:16;23.50;1.00
9410;DHT22;4744;52.576;13.568;2023-05-10T12:37:46;23.50;1.00
9410;DHT22;4744;52.576;13.568;2023-05-10T12:40:13;23.50;1.00
9410;DHT22;4744;52.576;13.568;2023-05-10T12:42:40;23.40;1.00
9410;DHT22;4744;52.576;13.568;2023-05-10T12:45:08;23.20;1.00
9410;DHT22;4744;52.576;13.568;2023-05-10T12:47:35;23.40;1.00
9410;DHT22;4744;52.576;13.568;2023-05-10T12:50:03;23.60;1.00
9410;DHT22;4744;52.576;13.568;2023-05-10T12:52:31;23.80;1.00
9410;DHT22;4744;52.576;13.568;2023-05-10T12:54:59;23.70;1.00
9410;DHT22;4744;52.576;13.568;2023-05-10T12:57:26;23.60;1.00
9410;DHT22;4744;52.576;13.568;2023-05-10T12:59:54;23.70;1.00
9410;DHT22;4744;52.576;13.568;2023-05-10T13:02:21;23.70;1.00
9410;DHT22;4744;52.576;13.568;2023-05-10T13:04:49;23.80;1.00
9410;DHT22;4744;52.576;13.568;2023-05-10T13:07:17;23.70;1.00
9410;DHT22;4744;52.576;13.568;2023-05-10T13:09:45;23.80;1.00
9410;DHT22;4744;52.576;13.568;2023-05-10T13:12:12;23.90;1.00
9410;DHT22;4744;52.576;13.568;2023-05-10T13:14:39;23.90;1.00
9410;DHT22;4744;52.576;13.568;2023-05-10T13:17:07;23.90;1.00
9410;DHT22;4744;52.576;13.568;2023-05-10T13:19:34;23.70;1.00
9410;DHT22;4744;52.576;13.568;2023-05-10T13:22:01;23.60;1.00
9410;DHT22;4744;52.576;13.568;2023-05-10T13:24:28;23.60;1.00
9410;DHT22;4744;52.576;13.568;2023-05-10T13:26:56;23.50;1.00
9410;DHT22;4744;52.576;13.568;2023-05-10T13:29:23;23.60;1.00
9410;DHT22;4744;52.576;13.568;2023-05-10T13:31:50;23.80;1.00
9410;DHT22;4744;52.576;13.568;2023-05-10T13:34:17;24.00;1.00
9410;DHT22;4744;52.576;13.568;2023-05-10T13:36:46;24.30;1.00
9410;DHT22;4744;52.576;13.568;2023-05-10T13:39:13;24.20;1.00
9410;DHT22;4744;52.576;13.568;2023-05-10T13:41:40;24.20;1.00
9410;DHT22;4744;52.576;13.568;2023-05-10T13:44:08;24.20;1.00
9410;DHT22;4744;52.576;13.568;2023-05-10T13:46:36;24.10;1.00
9410;DHT22;4744;52.576;13.568;2023-05-10T13:49:04;24.00;1.00
9410;DHT22;4744;52.576;13.568;2023-05-10T13:51:30;24.00;1.00
9410;DHT22;4744;52.576;13.568;2023-05-10T13:53:58;24.10;1.00
9410;DHT22;4744;52.576;13.568;2023-05-10T13:56:25;24.00;1.00
9410;DHT22;4744;52.576;13.568;2023-05-10T13:58:52;24.00;1.00
9410;DHT22;4744;52.576;13.568;2023-05-10T14:01:20;24.10;1.00
9410;DHT22;4744;52.576;13.568;2023-05-10T14:03:47;24.10;1.00
9410;DHT22;4744;52.576;13.568;2023-05-10T14:06:14;24.20;1.00
9410;DHT22;4744;52.576;13.568;2023-05-10T14:08:41;24.00;1.00
9410;DHT22;4744;52.576;13.568;2023-05-10T14:11:08;24.00;1.00
9410;DHT22;4744;52.576;13.568;2023-05-10T14:13:35;24.00;1.00
9410;DHT22;4744;52.576;13.568;2023-05-10T14:16:02;24.10;1.00
9410;DHT22;4744;52.576;13.568;2023-05-10T14:18:30;24.30;1.00
9410;DHT22;4744;52.576;13.568;2023-05-10T14:20:57;24.20;1.00
9410;DHT22;4744;52.576;13.568;2023-05-10T14:23:24;24.00;1.00
9410;DHT22;4744;52.576;13.568;2023-05-10T14:25:51;24.00;1.00
9410;DHT22;4744;52.576;13.568;2023-05-10T14:28:18;24.00;1.00
9410;DHT22;4744;52.576;13.568;2023-05-10T14:30:46;24.00;1.00
9410;DHT22;4744;52.576;13.568;2023-05-10T14:33:13;24.00;1.00
9410;DHT22;4744;52.576;13.568;2023-05-10T14:35:41;24.00;1.00
9410;DHT22;4744;52.576;13.568;2023-05-10T14:38:08;24.00;1.00
9410;DHT22;4744;52.576;13.568;2023-05-10T14:40:36;23.90;1.00
9410;DHT22;4744;52.576;13.568;2023-05-10T14:43:03;23.90;1.00
9410;DHT22;4744;52.576;13.568;2023-05-10T14:45:30;23.90;1.00
9410;DHT22;4744;52.576;13.568;2023-05-10T14:47:57;23.90;1.00
9410;DHT22;4744;52.576;13.568;2023-05-10T14:50:24;24.00;1.00
9410;DHT22;4744;52.576;13.568;2023-05-10T14:52:52;24.00;1.00
9410;DHT22;4744;52.576;13.568;2023-05-10T14:55:19;24.10;1.00
9410;DHT22;4744;52.576;13.568;2023-05-10T14:57:46;23.90;1.00
9410;DHT22;4744;52.576;13.568;2023-05-10T15:00:15;23.80;1.00
9410;DHT22;4744;52.576;13.568;2023-05-10T15:02:44;23.70;1.00
9410;DHT22;4744;52.576;13.568;2023-05-10T15:05:11;23.60;1.00
9410;DHT22;4744;52.576;13.568;2023-05-10T15:07:38;23.60;1.00
9410;DHT22;4744;52.576;13.568;2023-05-10T15:10:08;23.70;1.00
9410;DHT22;4744;52.576;13.568;2023-05-10T15:12:35;23.80;1.00
9410;DHT22;4744;52.576;13.568;2023-05-10T15:15:02;23.90;1.00
9410;DHT22;4744;52.576;13.568;2023-05-10T15:17:29;23.90;1.00
9410;DHT22;4744;52.576;13.568;2023-05-10T15:19:56;24.00;1.00
9410;DHT22;4744;52.576;13.568;2023-05-10T15:22:23;24.00;1.00
9410;DHT22;4744;52.576;13.568;2023-05-10T15:24:50;23.90;1.00
9410;DHT22;4744;52.576;13.568;2023-05-10T15:27:18;24.00;1.00
9410;DHT22;4744;52.576;13.568;2023-05-10T15:29:45;23.90;1.00
9410;DHT22;4744;52.576;13.568;2023-05-10T15:32:12;23.90;1.00
9410;DHT22;4744;52.576;13.568;2023-05-10T15:34:39;23.80;1.00
9410;DHT22;4744;52.576;13.568;2023-05-10T15:37:06;23.70;1.00
9410;DHT22;4744;52.576;13.568;2023-05-10T15:39:33;23.60;1.00
9410;DHT22;4744;52.576;13.568;2023-05-10T15:42:00;23.60;1.00
9410;DHT22;4744;52.576;13.568;2023-05-10T15:44:29;23.60;1.00
9410;DHT22;4744;52.576;13.568;2023-05-10T15:46:56;23.60;1.00
9410;DHT22;4744;52.576;13.568;2023-05-10T15:49:23;23.40;1.00
9410;DHT22;4744;52.576;13.568;2023-05-10T15:51:50;23.20;1.00
9410;DHT22;4744;52.576;13.568;2023-05-10T15:54:17;23.00;1.00
9410;DHT22;4744;52.576;13.568;2023-05-10T15:56:44;22.80;1.00
9410;DHT22;4744;52.576;13.568;2023-05-10T15:59:11;22.80;1.00
9410;DHT22;4744;52.576;13.568;2023-05-10T16:01:39;22.90;1.00
9410;DHT22;4744;52.576;13.568;2023-05-10T16:04:06;23.00;1.00
9410;DHT22;4744;52.576;13.568;2023-05-10T16:06:34;23.10;1.00
9410;DHT22;4744;52.576;13.568;2023-05-10T16:09:01;23.10;1.00
9410;DHT22;4744;52.576;13.568;2023-05-10T16:11:28;23.00;1.00
9410;DHT22;4744;52.576;13.568;2023-05-10T16:13:55;22.80;1.00